Time;durP1;ratioP1;P1;durP2;ratioP2;P2;SDS_P1;SDS_P2;PMS_P1;PMS_P2;Temp;Humidity;BMP_temperature;BMP_pressure;BME280_temperature;BME280_humidity;BME280_pressure;Samples;Min_cycle;Max_cycle;Signal;HPM_P1;HPM_P2
2022/03/20 00:01:34;;;;;;;;;47.50;41.50;;;;;1.27;40.88;101906.91;6312538;20;2864900;-47
2022/03/20 00:04:03;;;;;;;;;53.00;42.00;;;;;1.21;41.71;101914.75;6281295;20;2864866;-47
2022/03/20 00:06:31;;;;;;;;;45.00;34.00;;;;;1.44;42.35;101912.38;6278272;20;2500286;-49
2022/03/20 00:09:00;;;;;;;;;33.00;31.67;;;;;1.31;40.80;101911.34;6281263;20;3587725;-47
2022/03/20 00:11:29;;;;;;;;;40.00;36.00;;;;;1.68;40.64;101909.13;6280804;20;2849364;-47
2022/03/20 00:13:57;;;;;;;;;51.50;40.00;;;;;1.36;41.22;101908.78;6278346;20;2502362;-45
2022/03/20 00:16:29;;;;;;;;;42.00;38.00;;;;;1.07;43.41;101907.53;6281693;20;2873169;-47
2022/03/20 00:18:58;;;;;;;;;47.50;31.50;;;;;1.10;41.89;101910.19;6278706;20;2877459;-48
2022/03/20 00:21:27;;;;;;;;;43.50;36.00;;;;;1.03;42.62;101921.59;6281471;20;2869106;-47
2022/03/20 00:23:56;;;;;;;;;51.67;39.33;;;;;0.88;43.22;101916.09;6278654;20;2878373;-45
2022/03/20 00:26:25;;;;;;;;;47.50;39.00;;;;;0.82;43.69;101922.19;6309080;20;2874301;-49
2022/03/20 00:28:54;;;;;;;;;38.00;35.00;;;;;0.85;42.78;101930.16;6280908;20;2869053;-50
2022/03/20 00:31:23;;;;;;;;;46.50;39.00;;;;;0.34;45.24;101924.94;6279948;20;2859622;-51
2022/03/20 00:33:51;;;;;;;;;53.50;45.00;;;;;0.51;43.38;101931.41;6281582;20;2865944;-47
2022/03/20 00:36:19;;;;;;;;;36.50;31.00;;;;;0.69;42.34;101933.44;6280197;20;2500288;-48
2022/03/20 00:38:48;;;;;;;;;38.00;31.00;;;;;0.64;42.73;101933.38;6281757;20;2860789;-46
2022/03/20 00:41:16;;;;;;;;;56.00;46.00;;;;;0.29;44.23;101934.53;6275240;20;2508599;-48
2022/03/20 00:43:45;;;;;;;;;54.50;44.00;;;;;0.37;43.35;101930.28;6281174;20;2866022;-48
2022/03/20 00:46:14;;;;;;;;;91.67;69.33;;;;;0.45;43.05;101936.59;6281386;20;2910841;-46
2022/03/20 00:48:43;;;;;;;;;75.00;59.00;;;;;-0.03;44.57;101932.22;6308181;20;2868039;-50
2022/03/20 00:51:13;;;;;;;;;44.00;35.00;;;;;0.51;44.81;101934.03;6278878;20;2867056;-46
2022/03/20 00:53:41;;;;;;;;;43.00;33.00;;;;;0.53;46.23;101937.59;6276884;20;2500248;-52
2022/03/20 00:56:12;;;;;;;;;45.67;37.33;;;;;0.29;46.43;101939.81;6279202;20;2872213;-45
2022/03/20 00:58:42;;;;;;;;;63.50;47.00;;;;;-0.15;46.21;101938.19;6312102;20;2861969;-48
2022/03/20 01:01:10;;;;;;;;;42.00;37.50;;;;;-0.05;46.45;101944.53;6279481;20;2861952;-47
2022/03/20 01:03:39;;;;;;;;;44.50;31.00;;;;;-0.20;45.14;101949.53;6281050;20;2878453;-46
2022/03/20 01:06:08;;;;;;;;;44.50;35.00;;;;;0.02;45.71;101946.41;6279456;20;2881523;-46
2022/03/20 01:08:37;;;;;;;;;46.50;36.50;;;;;0.14;45.28;101937.84;6275939;20;2500509;-47
2022/03/20 01:11:08;;;;;;;;;36.00;31.00;;;;;0.10;45.77;101941.25;6274698;20;2502769;-47
2022/03/20 01:13:37;;;;;;;;;27.67;27.67;;;;;0.00;45.63;101937.59;6278152;20;3584576;-47
2022/03/20 01:16:06;;;;;;;;;32.00;27.00;;;;;0.19;45.52;101937.03;6284522;20;2843998;-46
2022/03/20 01:18:34;;;;;;;;;33.50;27.50;;;;;0.18;45.96;101947.56;6278697;20;2500728;-45
2022/03/20 01:21:03;;;;;;;;;40.50;29.00;;;;;0.01;46.35;101946.41;6273026;20;2500294;-48
2022/03/20 01:23:31;;;;;;;;;28.67;26.33;;;;;0.19;46.44;101955.53;6276910;20;3585702;-46
2022/03/20 01:25:59;;;;;;;;;38.00;31.00;;;;;-0.06;47.01;101951.53;6279145;20;2838587;-49
2022/03/20 01:28:27;;;;;;;;;31.50;28.00;;;;;0.26;46.62;101961.78;6278974;20;2500313;-47
2022/03/20 01:30:55;;;;;;;;;41.50;29.00;;;;;0.11;46.35;101957.16;6275037;20;2500257;-47
2022/03/20 01:33:24;;;;;;;;;35.50;27.00;;;;;0.06;46.98;101952.66;6278743;20;2850273;-47
2022/03/20 01:35:52;;;;;;;;;33.00;32.00;;;;;0.06;46.65;101953.53;6274336;20;2500266;-49
2022/03/20 01:38:21;;;;;;;;;33.00;26.00;;;;;0.33;46.95;101960.16;6281483;20;2849338;-47
2022/03/20 01:40:49;;;;;;;;;41.50;35.00;;;;;0.29;47.98;101958.31;6274121;20;2864874;-46
2022/03/20 01:43:18;;;;;;;;;41.50;28.00;;;;;-0.03;48.37;101961.28;6281068;20;2875293;-46
2022/03/20 01:45:47;;;;;;;;;34.00;32.00;;;;;0.02;47.28;101964.00;6281854;20;3583552;-46
2022/03/20 01:48:15;;;;;;;;;37.50;30.50;;;;;0.08;47.41;101962.38;6283022;20;2500262;-46
2022/03/20 01:50:44;;;;;;;;;41.50;33.50;;;;;0.00;47.68;101966.66;6280542;20;2500419;-48
2022/03/20 01:53:12;;;;;;;;;34.00;28.00;;;;;-0.03;47.57;101969.19;6283051;20;2500317;-46
2022/03/20 01:55:40;;;;;;;;;35.50;32.00;;;;;0.04;47.45;101973.75;6284743;20;2500280;-46
2022/03/20 01:58:07;;;;;;;;;40.50;32.50;;;;;0.03;47.47;101969.34;6280442;20;2500286;-46
2022/03/20 02:00:35;;;;;;;;;38.50;31.50;;;;;-0.03;47.35;101963.91;6275540;20;2502327;-47
2022/03/20 02:03:03;;;;;;;;;36.50;30.50;;;;;0.03;47.48;101964.06;6283115;20;2854465;-46
2022/03/20 02:05:31;;;;;;;;;39.00;31.00;;;;;-0.33;48.50;101962.47;6283040;20;2500255;-47
2022/03/20 02:08:00;;;;;;;;;36.00;32.00;;;;;0.02;47.54;101962.25;6278852;20;2500317;-47
2022/03/20 02:10:35;;;;;;;;;32.50;28.00;;;;;-0.32;48.95;101966.88;6278954;20;2502378;-45
2022/03/20 02:13:07;;;;;;;;;46.00;33.50;;;;;-0.36;48.80;101967.69;6284131;20;2866925;-47
2022/03/20 02:15:39;;;;;;;;;44.00;34.50;;;;;-0.18;48.87;101963.66;6281234;20;2500308;-47
2022/03/20 02:18:07;;;;;;;;;45.50;30.50;;;;;-0.58;49.08;101965.47;6282286;20;2500346;-46
2022/03/20 02:20:35;;;;;;;;;40.00;33.50;;;;;-0.46;49.30;101960.47;6278456;20;2500317;-45
2022/03/20 02:23:04;;;;;;;;;39.00;33.33;;;;;-0.71;50.62;101969.59;6281939;20;3594120;-49
2022/03/20 02:25:33;;;;;;;;;36.00;32.00;;;;;-0.36;49.04;101966.81;6286947;20;2862922;-50
2022/03/20 02:28:02;;;;;;;;;43.00;37.67;;;;;-0.62;50.09;101966.28;6282449;20;3604421;-48
2022/03/20 02:30:30;;;;;;;;;55.00;43.50;;;;;-0.58;49.85;101962.84;6275591;20;2508660;-47
2022/03/20 02:32:59;;;;;;;;;42.50;36.00;;;;;-0.51;49.31;101959.47;6284593;20;2856108;-49
2022/03/20 02:35:27;;;;;;;;;42.00;38.50;;;;;-0.09;48.67;101979.66;6280912;20;2500300;-47
2022/03/20 02:37:56;;;;;;;;;38.50;33.00;;;;;-0.34;48.80;101978.28;6283463;20;2500351;-46
2022/03/20 02:40:24;;;;;;;;;55.50;37.00;;;;;-0.57;49.84;101983.09;6277786;20;2508748;-46
2022/03/20 02:42:54;;;;;;;;;51.67;45.00;;;;;-0.90;49.77;101982.38;6283813;20;2870193;-47
2022/03/20 02:45:30;;;;;;;;;99.00;68.67;;;;;-0.74;50.01;101994.19;6315740;20;3670536;-46
2022/03/20 02:48:06;;;;;;;;;77.67;58.67;;;;;-0.86;50.45;101993.91;6315157;20;3644223;-51
2022/03/20 02:50:37;;;;;;;;;77.00;55.00;;;;;-1.35;51.43;101991.00;6309990;20;2891932;-48
2022/03/20 02:53:13;;;;;;;;;63.50;48.50;;;;;-1.24;51.72;101999.16;6279976;20;2858691;-47
2022/03/20 02:55:45;;;;;;;;;57.50;44.50;;;;;-1.23;51.83;102008.88;6284610;20;2881535;-54
2022/03/20 02:58:17;;;;;;;;;49.50;43.50;;;;;-1.12;51.19;102011.75;6278067;20;2500279;-53
2022/03/20 03:00:46;;;;;;;;;65.00;46.00;;;;;-1.22;52.65;102008.00;6280354;20;2873805;-52
2022/03/20 03:03:17;;;;;;;;;58.00;41.33;;;;;-1.03;51.74;102016.34;6281311;20;3647104;-52
2022/03/20 03:05:47;;;;;;;;;50.33;42.00;;;;;-0.97;51.70;102027.06;6310822;20;2875408;-54
2022/03/20 03:11:04;;;;;;;;;66.00;46.33;;;;;-1.17;51.56;102023.94;6306203;20;2877373;-54
2022/03/20 03:13:40;;;;;;;;;57.67;44.00;;;;;-1.24;51.46;102033.41;6310274;20;3637712;-52
2022/03/20 03:16:14;;;;;;;;;47.50;40.00;;;;;-1.83;53.14;102031.03;6306483;20;2500245;-48
2022/03/20 03:18:46;;;;;;;;;42.00;34.50;;;;;-1.63;52.22;102038.59;6276261;20;2502752;-52
2022/03/20 03:21:17;;;;;;;;;38.00;32.00;;;;;-1.55;52.72;102044.97;6276937;20;3571064;-50
2022/03/20 03:23:48;;;;;;;;;45.00;33.50;;;;;-1.74;52.94;102043.56;6302808;20;3607527;-50
2022/03/20 03:26:16;;;;;;;;;44.00;34.00;;;;;-1.43;52.66;102041.72;6278305;20;2500259;-51
2022/03/20 03:28:45;;;;;;;;;54.33;40.00;;;;;-1.20;52.09;102042.31;6280193;20;2889949;-50
2022/03/20 03:31:13;;;;;;;;;37.00;33.50;;;;;-1.24;51.36;102038.69;6310592;20;2500313;-49
2022/03/20 03:36:30;;;;;;;;;53.00;38.00;;;;;-2.03;54.74;102051.59;6314066;20;2877378;-47
2022/03/20 03:38:58;;;;;;;;;48.50;42.50;;;;;-1.69;53.95;102047.22;6276484;20;2500241;-49
2022/03/20 03:41:26;;;;;;;;;49.00;37.00;;;;;-1.95;54.82;102045.63;6275955;20;2500773;-49
2022/03/20 03:43:53;;;;;;;;;37.00;34.00;;;;;-1.98;56.15;102044.66;6284802;20;2853371;-49
2022/03/20 03:46:22;;;;;;;;;44.00;32.33;;;;;-2.14;57.00;102050.38;6281037;20;3599201;-47
2022/03/20 03:48:51;;;;;;;;;42.33;37.00;;;;;-1.53;54.77;102052.88;6281991;20;3587813;-48
2022/03/20 03:51:19;;;;;;;;;51.00;30.50;;;;;-2.11;56.43;102055.72;6279632;20;2872274;-54
2022/03/20 03:53:48;;;;;;;;;51.00;39.00;;;;;-1.83;55.53;102059.13;6279052;20;2863819;-48
2022/03/20 03:56:19;;;;;;;;;60.00;47.50;;;;;-1.75;54.74;102060.22;6281096;20;2875315;-46
2022/03/20 03:58:48;;;;;;;;;55.00;41.50;;;;;-2.10;54.37;102065.41;6283387;20;2892989;-54
2022/03/20 04:01:16;;;;;;;;;49.50;38.00;;;;;-2.36;54.18;102066.41;6279491;20;2856498;-51
2022/03/20 04:03:44;;;;;;;;;42.00;38.00;;;;;-2.72;55.34;102075.81;6280088;20;2502420;-50
2022/03/20 04:06:13;;;;;;;;;46.00;36.00;;;;;-2.33;53.72;102058.59;6282950;20;2862744;-51
2022/03/20 04:08:41;;;;;;;;;48.50;40.50;;;;;-2.18;53.04;102069.56;6276661;20;2503005;-48
2022/03/20 04:11:10;;;;;;;;;45.00;33.50;;;;;-2.51;54.95;102065.06;6278297;20;2862866;-45
2022/03/20 04:13:40;;;;;;;;;47.67;35.00;;;;;-2.57;54.76;102070.16;6282491;20;3604489;-46
2022/03/20 04:16:09;;;;;;;;;38.33;31.00;;;;;-2.57;55.17;102069.28;6278888;20;3602455;-46
2022/03/20 04:18:37;;;;;;;;;53.00;38.00;;;;;-2.73;56.04;102067.91;6277423;20;2500387;-46
2022/03/20 04:21:05;;;;;;;;;50.00;40.00;;;;;-2.40;55.68;102068.03;6277117;20;2500415;-46
2022/03/20 04:23:46;;;;;;;;;39.67;37.00;;;;;-2.74;56.08;102066.09;6281814;20;3596160;-49
2022/03/20 04:26:22;;;;;;;;;81.50;57.00;;;;;-2.14;53.63;102058.25;6282041;20;2879656;-50
2022/03/20 04:28:53;;;;;;;;;74.00;54.00;;;;;-2.22;54.29;102070.31;6280482;20;2884682;-46
2022/03/20 04:31:22;;;;;;;;;55.00;44.50;;;;;-2.37;54.31;102067.22;6282071;20;2855725;-47
2022/03/20 04:33:54;;;;;;;;;43.00;43.00;;;;;-2.57;54.74;102070.16;6277150;20;2500312;-45
2022/03/20 04:36:30;;;;;;;;;63.20;50.60;;;;;-2.93;56.19;102070.78;6281358;20;3578386;-48
2022/03/20 04:39:00;;;;;;;;;47.00;36.50;;;;;-2.42;54.53;102069.75;6308348;20;2867949;-45
2022/03/20 04:41:30;;;;;;;;;86.60;60.60;;;;;-3.08;56.41;102070.31;6277908;20;3650713;-46
2022/03/20 04:44:00;;;;;;;;;93.00;67.33;;;;;-2.93;56.26;102088.28;6278838;20;2900338;-44
2022/03/20 04:46:28;;;;;;;;;60.50;48.00;;;;;-2.69;55.75;102096.94;6307454;20;2493166;-46
2022/03/20 05:00:06;;;;;;;;;52.00;34.00;;;;;-3.83;56.88;102134.25;6276375;20;2500407;-45
2022/03/20 05:02:34;;;;;;;;;38.00;30.00;;;;;-3.90;56.47;102137.47;6275813;20;2502576;-45
2022/03/20 05:05:04;;;;;;;;;41.00;39.00;;;;;-3.62;56.81;102139.38;6280376;20;2851482;-46
2022/03/20 05:07:33;;;;;;;;;46.00;42.00;;;;;-3.93;57.74;102145.22;6279204;20;2510781;-45
2022/03/20 05:15:36;;;;;;;;;38.00;33.50;;;;;-3.32;57.59;102149.16;6277961;20;2854415;-46
2022/03/20 05:18:05;;;;;;;;;48.50;39.00;;;;;-2.97;57.13;102153.00;6284244;20;2873189;-45
2022/03/20 05:20:34;;;;;;;;;62.00;45.00;;;;;-2.15;54.57;102148.59;6283852;20;2873200;-45
2022/03/20 05:23:03;;;;;;;;;76.00;52.50;;;;;-1.94;53.77;102148.34;6281583;20;2498218;-45
2022/03/20 05:25:32;;;;;;;;;72.00;51.20;;;;;-2.14;54.75;102145.09;6284075;20;3625235;-48
2022/03/20 05:28:00;;;;;;;;;64.00;52.00;;;;;-2.44;56.26;102155.59;6285632;20;2855439;-46
2022/03/20 05:30:29;;;;;;;;;69.50;50.50;;;;;-2.14;55.34;102160.00;6284102;20;2881567;-46
2022/03/20 05:32:59;;;;;;;;;68.50;52.00;;;;;-1.77;54.19;102161.97;6281526;20;2854470;-45
2022/03/20 05:35:27;;;;;;;;;66.00;54.00;;;;;-1.22;52.68;102171.41;6285520;20;1992644;-45
2022/03/20 05:37:56;;;;;;;;;65.00;51.00;;;;;-1.53;53.78;102174.06;6313576;20;2845181;-46
2022/03/20 05:40:26;;;;;;;;;66.00;50.50;;;;;-1.51;53.96;102178.53;6284038;20;2860871;-44
2022/03/20 05:42:54;;;;;;;;;84.00;64.00;;;;;-1.74;55.06;102183.13;6281072;20;2500267;-46
2022/03/20 05:45:24;;;;;;;;;68.00;52.00;;;;;-1.36;53.81;102184.22;6285166;20;3608725;-47
2022/03/20 05:47:56;;;;;;;;;71.00;51.00;;;;;-0.73;51.99;102191.16;6277841;20;2499240;-49
2022/03/20 05:50:24;;;;;;;;;71.50;52.00;;;;;-0.37;51.49;102189.34;6279596;20;2500398;-48
2022/03/20 05:52:52;;;;;;;;;67.00;52.00;;;;;-0.98;53.95;102189.63;6280178;20;2493034;-46
2022/03/20 05:58:01;;;;;;;;;60.00;44.50;;;;;-0.92;53.82;102200.34;6278848;20;2498186;-47
2022/03/20 05:58:13;;;;;;;;;61.50;44.00;;;;;-0.55;52.77;102205.66;6279507;20;2496082;-46
2022/03/20 06:00:43;;;;;;;;;57.33;46.33;;;;;0.31;50.22;102202.31;6281923;20;2881642;-45
2022/03/20 06:03:13;;;;;;;;;58.50;45.00;;;;;-0.19;51.41;102205.63;6315045;20;2883108;-45
2022/03/20 06:05:42;;;;;;;;;70.67;50.33;;;;;0.78;49.09;102215.59;6284788;20;2893117;-47
2022/03/20 06:08:12;;;;;;;;;73.50;49.50;;;;;0.80;48.52;102219.19;6313592;20;2888840;-47
2022/03/20 06:10:43;;;;;;;;;79.50;61.50;;;;;1.58;46.79;102217.00;6282503;20;2868048;-47
2022/03/20 06:13:12;;;;;;;;;53.50;43.50;;;;;2.97;44.03;102210.03;6281283;20;2871899;-47
2022/03/20 06:15:41;;;;;;;;;54.00;42.00;;;;;3.03;43.24;102215.41;6282140;20;2862852;-47
2022/03/20 06:18:09;;;;;;;;;57.50;45.00;;;;;2.95;43.98;102214.41;6279655;20;2489905;-48
2022/03/20 06:20:38;;;;;;;;;58.00;45.50;;;;;1.89;45.64;102211.31;6283777;20;2865230;-49
2022/03/20 06:23:07;;;;;;;;;51.50;42.00;;;;;2.74;43.86;102217.72;6283280;20;2859680;-46
2022/03/20 06:25:37;;;;;;;;;56.67;44.00;;;;;2.52;44.33;102219.25;6281304;20;2867022;-46
2022/03/20 06:28:06;;;;;;;;;47.00;40.00;;;;;2.36;44.50;102218.16;6314723;20;2857545;-48
2022/03/20 06:30:36;;;;;;;;;49.33;40.00;;;;;2.04;45.92;102226.56;6282130;20;2869033;-46
2022/03/20 06:33:07;;;;;;;;;52.00;41.00;;;;;1.86;46.60;102223.63;6312299;20;2872536;-45
2022/03/20 06:35:37;;;;;;;;;62.00;45.67;;;;;2.28;45.48;102233.97;6281280;20;2879557;-49
2022/03/20 06:38:07;;;;;;;;;68.00;53.00;;;;;1.36;47.33;102236.94;6311839;20;2862797;-49
2022/03/20 06:40:35;;;;;;;;;53.00;42.00;;;;;1.52;46.98;102234.56;6282024;20;2873158;-48
2022/03/20 06:43:06;;;;;;;;;49.00;44.00;;;;;1.19;48.02;102239.31;6277261;20;2861807;-49
2022/03/20 06:45:36;;;;;;;;;49.00;46.00;;;;;1.14;47.94;102246.28;6280674;20;2508647;-45
2022/03/20 06:48:05;;;;;;;;;55.00;47.00;;;;;1.22;48.05;102244.66;6279112;20;2489925;-47
2022/03/20 06:50:35;;;;;;;;;51.00;43.50;;;;;1.30;48.14;102253.63;6280400;20;2864975;-47
2022/03/20 06:53:04;;;;;;;;;45.50;41.00;;;;;1.23;48.12;102242.00;6283043;20;2858651;-47
2022/03/20 06:55:33;;;;;;;;;51.00;44.50;;;;;0.91;48.78;102249.34;6283984;20;2855515;-47
2022/03/20 06:58:02;;;;;;;;;57.00;45.00;;;;;1.98;47.59;102245.03;6283417;20;2863818;-45
2022/03/20 07:00:33;;;;;;;;;135.67;114.67;;;;;2.07;47.84;102249.56;6277797;20;3711848;-46
2022/03/20 07:03:06;;;;;;;;;127.50;110.75;;;;;1.84;48.23;102249.22;6285078;20;4460647;-45
2022/03/20 07:05:36;;;;;;;;;62.50;51.50;;;;;2.42;46.85;102253.59;6310854;20;2854543;-45
2022/03/20 07:08:07;;;;;;;;;44.50;41.50;;;;;2.63;46.33;102253.00;6293755;20;2857556;-46
2022/03/20 07:10:36;;;;;;;;;54.00;44.00;;;;;3.23;45.27;102258.06;6279912;20;2871152;-45
2022/03/20 07:15:57;;;;;;;;;61.00;46.00;;;;;3.79;44.32;102262.09;6281616;20;2868628;-46
2022/03/20 07:18:27;;;;;;;;;58.67;45.00;;;;;4.36;45.55;102260.72;6279883;20;2888085;-46
2022/03/20 07:20:57;;;;;;;;;54.33;42.33;;;;;4.67;42.20;102263.53;6313703;20;2872157;-45
2022/03/20 07:23:27;;;;;;;;;50.00;42.67;;;;;4.21;43.11;102265.94;6311421;20;2863922;-46
2022/03/20 07:31:32;;;;;;;;;50.00;40.33;;;;;4.37;43.20;102268.72;6313058;20;3614955;-46
2022/03/20 07:34:01;;;;;;;;;46.00;40.00;;;;;3.72;43.49;102267.38;6311627;20;2862766;-46
2022/03/20 07:36:30;;;;;;;;;48.50;36.00;;;;;4.10;43.05;102274.75;6281607;20;2876417;-45
2022/03/20 07:38:58;;;;;;;;;55.50;44.50;;;;;3.67;44.31;102279.72;6277745;20;2853393;-45
2022/03/20 07:41:27;;;;;;;;;45.50;42.00;;;;;3.22;44.57;102274.88;6281501;20;2859462;-47
2022/03/20 07:43:57;;;;;;;;;59.50;49.50;;;;;3.65;44.71;102281.47;6277277;20;2500260;-46
2022/03/20 07:46:27;;;;;;;;;40.00;34.33;;;;;4.14;43.36;102284.53;6280889;20;2865870;-49
2022/03/20 07:48:59;;;;;;;;;48.67;40.00;;;;;3.72;42.98;102288.63;6310336;20;2860769;-48
2022/03/20 07:51:31;;;;;;;;;62.00;46.00;;;;;4.20;42.53;102288.09;6313816;20;2870227;-48
2022/03/20 07:53:59;;;;;;;;;70.00;53.00;;;;;4.56;42.46;102280.34;6275416;20;2500778;-49
2022/03/20 07:56:34;;;;;;;;;82.00;62.00;;;;;4.28;42.41;102284.63;6282824;20;3630659;-50
2022/03/20 07:59:05;;;;;;;;;86.67;66.33;;;;;5.36;41.45;102288.59;6312952;20;3644120;-49
2022/03/20 08:01:36;;;;;;;;;80.33;63.67;;;;;5.23;41.30;102289.47;6310955;20;3626513;-50
2022/03/20 08:04:06;;;;;;;;;73.00;58.00;;;;;5.22;40.92;102271.72;6311725;20;3626349;-50
2022/03/20 08:06:36;;;;;;;;;64.00;49.67;;;;;6.23;39.82;102282.41;6313567;20;2883642;-46
2022/03/20 08:09:05;;;;;;;;;84.67;65.33;;;;;5.62;39.87;102282.41;6312736;20;3615968;-42
2022/03/20 08:11:35;;;;;;;;;40.33;35.33;;;;;6.02;39.82;102282.44;6312986;20;2871241;-45
2022/03/20 08:14:08;;;;;;;;;40.00;34.00;;;;;6.84;38.50;102286.66;6312305;20;2860727;-44
2022/03/20 08:16:38;;;;;;;;;53.50;42.00;;;;;6.86;37.77;102274.22;6280637;20;2861726;-42
2022/03/20 08:19:12;;;;;;;;;30.00;28.50;;;;;6.82;37.98;102286.69;6278966;20;2848163;-46
2022/03/20 08:21:41;;;;;;;;;37.50;33.00;;;;;7.33;36.84;102281.06;6280554;20;2862750;-44
2022/03/20 08:24:12;;;;;;;;;34.50;27.00;;;;;7.87;35.96;102283.34;6282441;20;2856495;-44
2022/03/20 08:26:42;;;;;;;;;44.67;28.67;;;;;7.64;35.69;102279.09;6280019;20;3634606;-44
2022/03/20 08:29:13;;;;;;;;;40.00;33.00;;;;;7.30;36.00;102282.91;6312440;20;2868047;-46
2022/03/20 08:31:47;;;;;;;;;38.00;30.00;;;;;7.35;36.00;102273.94;6310166;20;2844255;-45
2022/03/20 08:34:17;;;;;;;;;36.33;32.00;;;;;7.06;36.16;102275.88;6279799;20;2855465;-45
2022/03/20 08:36:46;;;;;;;;;39.00;32.00;;;;;7.36;35.89;102266.81;6310555;20;2867058;-44
2022/03/20 08:39:15;;;;;;;;;32.50;30.00;;;;;7.45;35.73;102269.41;6279004;20;2860694;-46
2022/03/20 08:41:47;;;;;;;;;33.00;29.00;;;;;8.16;35.92;102267.00;6278984;20;2839885;-49
2022/03/20 08:44:17;;;;;;;;;29.67;24.67;;;;;7.92;35.42;102270.81;6310910;20;2850280;-47
2022/03/20 08:46:45;;;;;;;;;33.33;27.33;;;;;7.78;36.08;102273.63;6314927;20;3582624;-50
2022/03/20 08:49:14;;;;;;;;;36.00;33.00;;;;;7.30;36.71;102269.53;6278218;20;2854561;-49
2022/03/20 08:51:43;;;;;;;;;33.00;29.50;;;;;7.82;35.40;102272.69;6288214;20;2854481;-52
2022/03/20 08:54:12;;;;;;;;;25.00;23.00;;;;;7.77;34.65;102270.97;6288556;20;2847225;-53
2022/03/20 08:56:40;;;;;;;;;135.50;103.00;;;;;7.64;34.72;102268.38;6283800;20;1985740;-50
2022/03/20 08:59:09;;;;;;;;;31.50;27.00;;;;;7.97;35.18;102266.31;6288926;20;2841040;-48
2022/03/20 09:01:37;;;;;;;;;33.50;30.00;;;;;7.82;35.24;102264.69;6291375;20;2856577;-53
2022/03/20 09:04:07;;;;;;;;;128.00;108.33;;;;;7.72;34.99;102251.41;6285704;20;3704370;-51
2022/03/20 09:06:43;;;;;;;;;165.00;142.33;;;;;7.85;35.45;102242.38;6287905;20;3720106;-53
2022/03/20 09:09:14;;;;;;;;;61.33;46.33;;;;;8.41;34.66;102243.59;6285621;20;3634589;-50
2022/03/20 09:11:45;;;;;;;;;38.33;36.00;;;;;8.32;34.78;102244.56;6323434;20;3600221;-52
2022/03/20 09:14:13;;;;;;;;;37.00;37.00;;;;;7.53;34.82;102239.94;6287783;20;2867464;-50
2022/03/20 09:19:30;;;;;;;;;36.67;33.00;;;;;8.39;34.48;102242.72;6322597;20;3615864;-49
2022/03/20 09:22:00;;;;;;;;;39.00;35.00;;;;;8.06;34.66;102234.13;6288996;20;3622107;-46
2022/03/20 09:24:28;;;;;;;;;59.50;48.50;;;;;8.33;34.50;102246.31;6322595;20;2615904;-45
2022/03/20 09:26:56;;;;;;;;;29.00;28.00;;;;;8.46;33.17;102248.91;6287299;20;2848154;-44
2022/03/20 09:29:26;;;;;;;;;31.50;27.50;;;;;9.28;33.31;102252.25;6285966;20;2846168;-46
2022/03/20 09:31:55;;;;;;;;;31.00;26.00;;;;;8.99;32.55;102255.38;6286880;20;2843027;-45
2022/03/20 09:34:24;;;;;;;;;34.50;26.50;;;;;9.09;31.91;102254.34;6290364;20;2856609;-51
2022/03/20 09:36:53;;;;;;;;;35.67;30.00;;;;;8.65;32.68;102252.25;6289041;20;3614873;-50
2022/03/20 09:39:22;;;;;;;;;30.00;25.50;;;;;7.96;33.03;102248.50;6319600;20;2835730;-50
2022/03/20 09:41:53;;;;;;;;;28.00;26.00;;;;;8.23;33.11;102246.44;6286562;20;2848164;-51
2022/03/20 09:44:25;;;;;;;;;28.00;23.00;;;;;9.08;32.89;102240.94;6285119;20;2848279;-47
2022/03/20 09:46:53;;;;;;;;;38.50;29.00;;;;;9.34;32.35;102236.06;6287315;20;2862917;-44
2022/03/20 09:49:25;;;;;;;;;29.00;26.50;;;;;8.64;32.14;102243.31;6288007;20;2838822;-46
2022/03/20 09:51:54;;;;;;;;;32.50;28.00;;;;;8.78;32.53;102232.44;6286948;20;2849462;-46
2022/03/20 09:54:22;;;;;;;;;31.00;24.00;;;;;8.51;33.18;102231.00;6285901;20;2491935;-44
2022/03/20 09:56:52;;;;;;;;;34.00;30.00;;;;;9.29;31.86;102240.63;6285412;20;2846215;-43
2022/03/20 09:59:21;;;;;;;;;33.33;28.00;;;;;9.47;31.72;102236.78;6287243;20;2846133;-44
2022/03/20 10:01:50;;;;;;;;;28.50;27.00;;;;;8.93;32.20;102240.25;6316860;20;2830458;-43
2022/03/20 10:04:20;;;;;;;;;30.33;30.00;;;;;8.44;32.61;102234.63;6288005;20;3600214;-45
2022/03/20 10:06:48;;;;;;;;;25.50;24.50;;;;;8.75;32.70;102237.84;6317752;20;2831488;-49
2022/03/20 10:09:18;;;;;;;;;31.50;25.00;;;;;9.13;32.11;102223.00;6287686;20;2854441;-46
2022/03/20 10:11:54;;;;;;;;;34.00;30.00;;;;;10.02;31.63;102229.59;6287568;20;3610639;-48
2022/03/20 10:14:29;;;;;;;;;23.67;20.00;;;;;9.20;32.34;102230.94;6316533;20;3563876;-44
2022/03/20 10:17:19;;;;;;;;;29.50;24.50;;;;;9.31;31.21;102219.16;6319843;20;2839823;-44
2022/03/20 10:19:50;;;;;;;;;42.00;35.33;;;;;9.66;31.71;102219.50;6287221;20;2859619;-43
2022/03/20 10:22:19;;;;;;;;;27.50;25.00;;;;;9.81;31.21;102221.00;6317320;20;2841913;-50
2022/03/20 10:24:51;;;;;;;;;35.00;31.00;;;;;8.70;31.52;102226.28;6286961;20;2852462;-51
2022/03/20 10:27:20;;;;;;;;;29.00;26.50;;;;;9.95;30.73;102215.38;6283669;20;2845175;-48
2022/03/20 10:29:59;;;;;;;;;32.00;26.00;;;;;9.98;31.08;102209.06;6286353;20;2856591;-44
2022/03/20 10:32:28;;;;;;;;;28.00;25.00;;;;;9.73;30.80;102214.00;6316519;20;2845046;-44
2022/03/20 10:35:04;;;;;;;;;18.00;10.00;;;;;9.36;31.75;102203.91;6289467;20;2801351;-44
2022/03/20 10:37:50;;;;;;;;;30.00;27.50;;;;;9.08;31.15;102209.66;6287975;20;2852746;-43
2022/03/20 10:40:28;;;;;;;;;31.00;26.00;;;;;9.62;30.99;102206.16;6287965;20;2852374;-46
2022/03/20 10:43:17;;;;;;;;;28.50;26.50;;;;;9.18;30.52;102207.75;6318958;20;2854424;-45
2022/03/20 10:45:49;;;;;;;;;31.50;29.00;;;;;10.05;29.62;102210.72;6287946;20;2852394;-45
2022/03/20 10:48:35;;;;;;;;;34.33;30.00;;;;;9.31;30.22;102197.72;6285233;20;2858613;-45
2022/03/20 10:51:06;;;;;;;;;18.00;18.00;;;;;8.62;31.25;102204.06;6320692;20;2835817;-47
2022/03/20 10:53:50;;;;;;;;;34.50;26.00;;;;;8.60;31.15;102206.75;6285640;20;2852399;-51
2022/03/20 10:56:19;;;;;;;;;30.00;24.50;;;;;9.50;30.60;102206.34;6282537;20;2847220;-47
2022/03/20 10:58:48;;;;;;;;;26.50;23.00;;;;;8.62;30.14;102209.44;6284899;20;2827346;-47
2022/03/20 11:01:38;;;;;;;;;23.50;23.50;;;;;9.90;30.88;102201.19;6281586;20;2844023;-49
2022/03/20 11:04:09;;;;;;;;;30.50;26.00;;;;;9.72;30.24;102194.34;6288234;20;2838925;-46
2022/03/20 11:06:42;;;;;;;;;33.50;28.00;;;;;9.74;29.97;102189.84;6285061;20;2853370;-51
2022/03/20 11:09:12;;;;;;;;;39.50;35.00;;;;;9.09;30.02;102194.50;6284891;20;2842959;-54
2022/03/20 11:12:00;;;;;;;;;23.00;20.00;;;;;10.14;29.02;102183.72;6283869;20;2836759;-48
2022/03/20 11:14:29;;;;;;;;;21.00;21.00;;;;;10.17;29.25;102172.91;6282877;20;2831501;-52
2022/03/20 11:17:04;;;;;;;;;28.00;20.00;;;;;10.48;28.45;102165.16;6281758;20;2862761;-49
2022/03/20 11:19:35;;;;;;;;;23.00;19.00;;;;;10.52;28.72;102163.28;6285313;20;2500247;-50
2022/03/20 11:22:11;;;;;;;;;27.50;23.00;;;;;9.65;28.59;102163.16;6283214;20;2836727;-52
2022/03/20 11:24:42;;;;;;;;;23.00;23.00;;;;;9.60;29.95;102165.94;6284470;20;2837757;-50
2022/03/20 11:27:13;;;;;;;;;26.50;21.00;;;;;9.61;29.56;102148.03;6283971;20;2838792;-49
2022/03/20 11:29:58;;;;;;;;;20.33;17.00;;;;;9.20;29.68;102149.63;6283572;20;3569079;-49
2022/03/20 11:32:29;;;;;;;;;33.00;24.67;;;;;9.25;30.53;102146.88;6284761;20;2849295;-47
2022/03/20 11:34:58;;;;;;;;;20.00;13.00;;;;;9.43;30.53;102144.78;6316367;20;3533576;-49
2022/03/20 11:37:47;;;;;;;;;38.00;30.67;;;;;9.23;30.66;102133.50;6316810;20;3626294;-48
2022/03/20 11:40:22;;;;;;;;;18.67;17.00;;;;;9.15;30.61;102132.75;6283388;20;3551698;-51
2022/03/20 11:43:22;;;;;;;;;27.00;23.00;;;;;8.63;29.53;102136.22;6286602;20;2839953;-44
2022/03/20 11:46:32;;;;;;;;;25.00;21.00;;;;;9.66;30.06;102122.00;6282187;20;2500274;-43
2022/03/20 11:49:22;;;;;;;;;27.00;24.50;;;;;8.83;30.51;102120.75;6279889;20;2852353;-44